createdAt,value
2023-01-21T00:02:01.508Z,2.10
2023-01-21T00:04:38.358Z,2.14
2023-01-21T00:07:08.113Z,2.17
2023-01-21T00:09:42.570Z,2.12
2023-01-21T00:12:11.300Z,2.02
2023-01-21T00:14:42.159Z,2.01
2023-01-21T00:17:10.723Z,2.00
2023-01-21T00:19:45.387Z,2.01
2023-01-21T00:22:16.470Z,2.00
2023-01-21T00:24:50.198Z,2.00
2023-01-21T00:27:26.972Z,1.99
2023-01-21T00:29:55.619Z,1.95
2023-01-21T00:32:24.292Z,1.94
2023-01-21T00:34:56.353Z,1.96
2023-01-21T00:37:25.428Z,1.99
2023-01-21T00:39:56.990Z,1.99
2023-01-21T00:42:31.743Z,1.95
2023-01-21T00:45:06.505Z,1.94
2023-01-21T00:47:40.576Z,1.99
2023-01-21T00:50:12.731Z,2.05
2023-01-21T00:52:44.428Z,2.09
2023-01-21T00:55:13.022Z,2.10
2023-01-21T00:57:48.166Z,2.09
2023-01-21T01:00:28.361Z,2.08
2023-01-21T01:03:06.102Z,2.10
2023-01-21T01:05:42.795Z,2.10
2023-01-21T01:08:13.924Z,2.14
2023-01-21T01:10:44.905Z,2.20
2023-01-21T01:13:13.545Z,2.26
2023-01-21T01:15:51.996Z,2.23
2023-01-21T01:18:30.522Z,2.21
2023-01-21T01:21:06.432Z,2.19
2023-01-21T01:23:42.156Z,2.24
2023-01-21T01:26:16.381Z,2.28
2023-01-21T01:28:48.057Z,2.26
2023-01-21T01:31:23.804Z,2.27
2023-01-21T01:33:57.948Z,2.29
2023-01-21T01:36:32.707Z,2.32
2023-01-21T01:39:05.308Z,2.31
2023-01-21T01:41:45.460Z,2.32
2023-01-21T01:44:51.980Z,2.34
2023-01-21T01:47:30.884Z,2.31
2023-01-21T01:50:12.038Z,2.29
2023-01-21T01:52:44.027Z,2.30
2023-01-21T01:55:15.602Z,2.31
2023-01-21T01:57:50.952Z,2.30
2023-01-21T02:00:25.517Z,2.30
2023-01-21T02:03:18.589Z,2.27
2023-01-21T02:05:55.980Z,2.23
2023-01-21T02:08:33.529Z,2.21
2023-01-21T02:11:10.997Z,2.19
2023-01-21T02:13:45.093Z,2.19
2023-01-21T02:16:48.308Z,2.21
2023-01-21T02:19:43.491Z,2.23
2023-01-21T02:22:39.896Z,2.20
2023-01-21T02:25:43.804Z,2.17
2023-01-21T02:28:24.465Z,2.17
2023-01-21T02:31:18.959Z,2.20
2023-01-21T02:34:08.585Z,2.22
2023-01-21T02:37:00.508Z,2.22
2023-01-21T02:40:16.856Z,2.25
2023-01-21T02:43:10.406Z,2.28
2023-01-21T02:45:50.488Z,2.30
2023-01-21T02:48:35.627Z,2.29
2023-01-21T02:51:08.356Z,2.24
2023-01-21T02:53:42.834Z,2.20
2023-01-21T02:56:37.941Z,2.19
2023-01-21T02:59:09.129Z,2.20
2023-01-21T03:02:19.177Z,2.20
2023-01-21T03:05:17.265Z,2.17
2023-01-21T03:08:04.166Z,2.10
2023-01-21T03:10:42.275Z,2.06
2023-01-21T03:13:42.445Z,2.06
2023-01-21T03:16:54.384Z,2.10
2023-01-21T03:19:30.688Z,2.12
2023-01-21T03:22:09.090Z,2.12
2023-01-21T03:24:45.649Z,2.13
2023-01-21T03:27:18.411Z,2.13
2023-01-21T03:29:52.696Z,2.12
2023-01-21T03:32:23.456Z,2.13
2023-01-21T03:34:54.466Z,2.15
2023-01-21T03:37:49.419Z,2.14
2023-01-21T03:40:31.727Z,2.13
2023-01-21T03:43:06.230Z,2.17
2023-01-21T03:45:49.172Z,2.21
2023-01-21T03:48:43.346Z,2.23
2023-01-21T03:51:36.520Z,2.25
2023-01-21T03:54:07.808Z,2.24
2023-01-21T03:56:42.038Z,2.24
2023-01-21T03:59:15.217Z,2.28
2023-01-21T04:01:48.455Z,2.32
2023-01-21T04:04:22.279Z,2.33
2023-01-21T04:07:00.775Z,2.29
2023-01-21T04:09:29.768Z,2.24
2023-01-21T04:12:01.221Z,2.19
2023-01-21T04:14:33.785Z,2.18
2023-01-21T04:17:08.398Z,2.18
2023-01-21T04:19:40.061Z,2.20
2023-01-21T04:22:15.985Z,2.18
2023-01-21T04:24:47.471Z,2.16
2023-01-21T04:27:21.328Z,2.15
2023-01-21T04:29:52.003Z,2.14
2023-01-21T04:32:27.927Z,2.14
2023-01-21T04:34:56.427Z,2.19
2023-01-21T04:37:25.096Z,2.20
2023-01-21T04:39:53.889Z,2.19
2023-01-21T04:42:27.900Z,2.19
2023-01-21T04:44:59.384Z,2.18
2023-01-21T04:47:30.367Z,2.21
2023-01-21T04:50:02.363Z,2.25
2023-01-21T04:52:38.710Z,2.29
2023-01-21T04:55:09.094Z,2.30
2023-01-21T04:57:42.175Z,2.28
2023-01-21T05:00:17.360Z,2.25
2023-01-21T05:02:48.264Z,2.23
2023-01-21T05:05:22.954Z,2.24
2023-01-21T05:07:54.765Z,2.27
2023-01-21T05:10:29.928Z,2.28
2023-01-21T05:12:59.555Z,2.26
2023-01-21T05:15:32.356Z,2.19
2023-01-21T05:18:05.733Z,2.10
2023-01-21T05:20:40.050Z,2.00
2023-01-21T05:23:08.625Z,1.97
2023-01-21T05:25:39.711Z,1.94
2023-01-21T05:28:08.541Z,1.95
2023-01-21T05:30:44.474Z,1.95
2023-01-21T05:33:26.371Z,1.92
2023-01-21T05:35:54.837Z,1.89
2023-01-21T05:38:24.894Z,1.87
2023-01-21T05:41:01.179Z,1.88
2023-01-21T05:43:30.941Z,1.87
2023-01-21T05:46:02.325Z,1.84
2023-01-21T05:48:31.182Z,1.85
2023-01-21T05:50:59.775Z,1.84
2023-01-21T05:53:30.764Z,1.81
2023-01-21T05:55:59.444Z,1.72
2023-01-21T05:58:30.887Z,1.72
2023-01-21T06:01:02.636Z,1.70
2023-01-21T06:03:36.686Z,1.73
2023-01-21T06:06:05.523Z,1.75
2023-01-21T06:08:37.686Z,1.73
2023-01-21T06:11:10.756Z,1.76
2023-01-21T06:13:44.810Z,1.81
2023-01-21T06:16:15.559Z,1.86
2023-01-21T06:18:46.965Z,1.88
2023-01-21T06:21:15.822Z,1.87
2023-01-21T06:23:47.130Z,1.84
2023-01-21T06:26:15.640Z,1.83
2023-01-21T06:28:44.351Z,1.85
2023-01-21T06:31:15.678Z,1.90
2023-01-21T06:33:51.687Z,1.95
2023-01-21T06:36:21.704Z,1.98
2023-01-21T06:38:50.350Z,1.95
2023-01-21T06:41:23.710Z,1.95
2023-01-21T06:43:55.118Z,1.94
2023-01-21T06:46:26.199Z,1.95
2023-01-21T06:48:54.970Z,2.00
2023-01-21T06:51:29.753Z,2.06
2023-01-21T06:53:58.779Z,2.09
2023-01-21T06:56:27.435Z,2.09
2023-01-21T06:58:59.197Z,2.08
2023-01-21T07:01:33.018Z,2.09
2023-01-21T07:04:07.113Z,2.12
2023-01-21T07:06:40.747Z,2.13
2023-01-21T07:09:10.248Z,2.08
2023-01-21T07:11:42.875Z,2.01
2023-01-21T07:14:11.598Z,1.98
2023-01-21T07:16:45.583Z,2.00
2023-01-21T07:19:14.576Z,2.07
2023-01-21T07:21:53.352Z,2.12
2023-01-21T07:24:22.620Z,2.14
2023-01-21T07:26:51.199Z,2.14
2023-01-21T07:29:20.528Z,2.16
2023-01-21T07:31:51.427Z,2.19
2023-01-21T07:34:19.998Z,2.18
2023-01-21T07:36:48.623Z,2.21
2023-01-21T07:39:17.246Z,2.26
2023-01-21T07:41:48.432Z,2.33
2023-01-21T07:44:17.908Z,2.40
2023-01-21T07:46:49.404Z,2.54
2023-01-21T07:49:18.550Z,2.62
2023-01-21T07:51:50.167Z,2.63
2023-01-21T07:54:25.443Z,2.62
2023-01-21T07:56:59.107Z,2.66
2023-01-21T07:59:35.779Z,2.69
2023-01-21T08:02:16.707Z,2.75
2023-01-21T08:04:48.333Z,2.81
2023-01-21T08:07:17.221Z,2.88
2023-01-21T08:09:51.480Z,2.85
2023-01-21T08:12:22.559Z,2.80
2023-01-21T08:18:15.019Z,2.73
2023-01-21T08:21:04.025Z,2.71
2023-01-21T08:23:40.916Z,2.75
2023-01-21T08:26:09.768Z,2.78
2023-01-21T08:28:40.978Z,2.78
2023-01-21T08:31:12.605Z,2.80
2023-01-21T08:33:46.624Z,2.85
2023-01-21T08:36:16.048Z,2.92
2023-01-21T08:38:48.885Z,3.01
2023-01-21T08:41:17.983Z,3.05
2023-01-21T08:43:48.908Z,2.99
2023-01-21T08:46:17.569Z,2.94
2023-01-21T08:48:46.122Z,2.92
2023-01-21T08:51:14.684Z,2.94
2023-01-21T08:53:43.172Z,2.93
2023-01-21T08:56:14.524Z,2.91
2023-01-21T08:58:48.957Z,2.86
2023-01-21T09:01:17.636Z,2.83
2023-01-21T09:03:46.640Z,2.82
2023-01-21T09:06:18.236Z,2.86
2023-01-21T09:08:49.732Z,2.92
2023-01-21T09:11:18.804Z,3.01
2023-01-21T09:13:50.231Z,3.05
2023-01-21T09:16:21.405Z,3.03
2023-01-21T09:18:54.600Z,3.01
2023-01-21T09:21:23.464Z,3.03
2023-01-21T09:23:55.429Z,3.06
2023-01-21T09:26:27.242Z,3.05
2023-01-21T09:29:03.136Z,3.05
2023-01-21T09:31:32.205Z,3.09
2023-01-21T09:34:04.202Z,3.09
2023-01-21T09:36:35.960Z,3.11
2023-01-21T09:39:12.150Z,3.15
2023-01-21T09:41:52.573Z,3.17
2023-01-21T09:44:44.916Z,3.16
2023-01-21T09:47:40.405Z,3.16
2023-01-21T09:50:17.614Z,3.04
2023-01-21T09:52:55.454Z,2.99
2023-01-21T09:55:29.516Z,3.06
2023-01-21T09:58:20.068Z,3.11
2023-01-21T10:01:09.616Z,3.08
2023-01-21T10:04:02.402Z,3.02
2023-01-21T10:06:47.655Z,3.02
2023-01-21T10:09:24.744Z,3.07
2023-01-21T10:12:19.007Z,3.13
2023-01-21T10:14:56.621Z,3.21
2023-01-21T10:17:54.254Z,3.28
2023-01-21T10:20:57.442Z,3.35
2023-01-21T10:23:46.441Z,3.42
2023-01-21T10:26:17.522Z,3.52
2023-01-21T10:28:52.300Z,3.59
2023-01-21T10:31:27.851Z,3.66
2023-01-21T10:33:58.867Z,3.71
2023-01-21T10:36:45.455Z,3.72
2023-01-21T10:39:17.213Z,3.74
2023-01-21T10:42:11.720Z,3.78
2023-01-21T10:45:16.198Z,3.80
2023-01-21T10:48:01.841Z,3.74
2023-01-21T10:50:52.297Z,3.80
2023-01-21T10:53:43.441Z,3.88
2023-01-21T10:56:37.165Z,3.96
2023-01-21T10:59:23.395Z,4.05
2023-01-21T11:02:25.013Z,4.11
2023-01-21T11:04:55.286Z,4.12
2023-01-21T11:07:25.128Z,4.02
2023-01-21T11:09:54.092Z,3.90
2023-01-21T11:12:24.205Z,3.88
2023-01-21T11:14:58.383Z,3.85
2023-01-21T11:17:35.309Z,3.81
2023-01-21T11:20:16.970Z,3.79
2023-01-21T11:22:50.665Z,3.85
2023-01-21T11:25:25.756Z,3.93
2023-01-21T11:27:54.990Z,3.97
2023-01-21T11:30:58.487Z,3.94
2023-01-21T11:33:28.231Z,3.87
2023-01-21T11:36:17.259Z,3.82
2023-01-21T11:39:01.089Z,3.80
2023-01-21T11:41:30.108Z,3.78
2023-01-21T11:44:16.630Z,3.74
2023-01-21T11:46:46.961Z,3.72
2023-01-21T11:49:15.725Z,3.76
2023-01-21T11:51:49.136Z,3.85
2023-01-21T11:54:26.174Z,3.91
2023-01-21T11:56:58.626Z,4.01
2023-01-21T11:59:34.279Z,4.19
2023-01-21T12:02:23.898Z,4.36
2023-01-21T12:05:13.079Z,4.44
2023-01-21T12:07:43.508Z,4.44
2023-01-21T12:10:12.034Z,4.36
2023-01-21T12:13:02.395Z,4.29
2023-01-21T12:15:40.296Z,4.20
2023-01-21T12:18:08.999Z,4.14
2023-01-21T12:21:04.209Z,4.14
2023-01-21T12:24:00.882Z,4.19
2023-01-21T12:26:45.608Z,4.25
2023-01-21T12:29:42.287Z,4.27
2023-01-21T12:32:23.769Z,4.34
2023-01-21T12:35:10.897Z,4.36
2023-01-21T12:37:48.652Z,4.35
2023-01-21T12:40:42.710Z,4.37
2023-01-21T12:43:32.085Z,4.37
2023-01-21T12:46:10.879Z,4.37
2023-01-21T12:48:52.223Z,4.43
2023-01-21T12:51:27.185Z,4.42
2023-01-21T12:54:05.102Z,4.35
2023-01-21T12:57:09.197Z,4.25
2023-01-21T12:59:46.878Z,4.14
2023-01-21T13:02:23.689Z,4.07
2023-01-21T13:05:43.003Z,4.09
2023-01-21T13:08:37.328Z,4.13
2023-01-21T13:11:11.943Z,4.08
2023-01-21T13:13:49.279Z,3.98
2023-01-21T13:16:18.222Z,3.89
2023-01-21T13:18:52.612Z,3.97
2023-01-21T13:21:39.746Z,4.08
2023-01-21T13:24:32.520Z,4.16
2023-01-21T13:27:11.237Z,4.29
2023-01-21T13:30:11.115Z,4.49
2023-01-21T13:32:57.048Z,4.68
2023-01-21T13:35:49.266Z,4.85
2023-01-21T13:38:33.043Z,4.94
2023-01-21T13:41:20.303Z,4.94
2023-01-21T13:44:10.826Z,4.88
2023-01-21T13:47:14.350Z,4.81
2023-01-21T13:49:53.911Z,4.82
2023-01-21T13:52:35.279Z,4.83
2023-01-21T13:55:33.070Z,4.78
2023-01-21T13:58:43.791Z,4.72
2023-01-21T14:01:21.850Z,4.67
2023-01-21T14:04:05.736Z,4.63
2023-01-21T14:06:42.860Z,4.53
2023-01-21T14:09:24.648Z,4.45
2023-01-21T14:12:09.784Z,4.40
2023-01-21T14:14:52.456Z,4.35
2023-01-21T14:17:43.368Z,4.29
2023-01-21T14:20:51.208Z,4.20
2023-01-21T14:23:29.788Z,4.14
2023-01-21T14:26:11.277Z,4.15
2023-01-21T14:29:10.122Z,4.11
2023-01-21T14:31:45.252Z,4.10
2023-01-21T14:34:14.647Z,4.09
2023-01-21T14:36:57.355Z,4.08
2023-01-21T14:39:37.993Z,4.13
2023-01-21T14:42:12.819Z,4.19
2023-01-21T14:44:48.972Z,4.20
2023-01-21T14:47:48.393Z,4.15
2023-01-21T14:50:51.514Z,4.09
2023-01-21T14:53:29.829Z,4.07
2023-01-21T14:56:27.259Z,4.05
2023-01-21T14:59:00.202Z,4.04
2023-01-21T15:01:46.112Z,4.06
2023-01-21T15:04:40.275Z,4.05
2023-01-21T15:07:15.757Z,4.05
2023-01-21T15:09:52.773Z,4.02
2023-01-21T15:12:27.524Z,3.96
2023-01-21T15:15:02.406Z,3.88
2023-01-21T15:17:57.795Z,3.81
2023-01-21T15:20:44.496Z,3.83
2023-01-21T15:23:38.038Z,3.86
2023-01-21T15:26:13.072Z,3.84
2023-01-21T15:28:52.209Z,3.83
2023-01-21T15:31:20.927Z,3.80
2023-01-21T15:34:14.840Z,3.80
2023-01-21T15:36:47.331Z,3.81
2023-01-21T15:39:19.251Z,3.85
2023-01-21T15:42:04.567Z,3.87
2023-01-21T15:45:23.840Z,3.86
2023-01-21T15:48:05.668Z,3.86
2023-01-21T15:50:50.137Z,3.89
2023-01-21T15:53:47.769Z,3.93
2023-01-21T15:56:26.724Z,3.95
2023-01-21T15:59:29.786Z,3.95
2023-01-21T16:02:10.510Z,3.91
2023-01-21T16:04:47.203Z,3.88
2023-01-21T16:07:25.272Z,3.87
2023-01-21T16:10:18.447Z,3.85
2023-01-21T16:13:05.439Z,3.86
2023-01-21T16:15:49.111Z,3.81
2023-01-21T16:18:21.031Z,3.77
2023-01-21T16:20:56.249Z,3.78
2023-01-21T16:23:27.619Z,3.79
2023-01-21T16:25:59.073Z,3.79
2023-01-21T16:28:41.741Z,3.78
2023-01-21T16:31:11.690Z,3.82
2023-01-21T16:33:40.940Z,3.83
2023-01-21T16:36:14.261Z,3.78
2023-01-21T16:38:45.167Z,3.72
2023-01-21T16:41:14.028Z,3.65
2023-01-21T16:43:56.021Z,3.67
2023-01-21T16:46:26.512Z,3.67
2023-01-21T16:48:57.996Z,3.67
2023-01-21T16:51:32.865Z,3.67
2023-01-21T16:54:28.006Z,3.63
2023-01-21T16:57:01.394Z,3.58
2023-01-21T16:59:40.247Z,3.54
2023-01-21T17:02:25.123Z,3.52
2023-01-21T17:05:00.187Z,3.52
2023-01-21T17:07:33.290Z,3.55
2023-01-21T17:10:07.630Z,3.61
2023-01-21T17:12:37.580Z,3.64
2023-01-21T17:15:42.555Z,3.65
2023-01-21T17:18:21.701Z,3.65
2023-01-21T17:21:07.357Z,3.63
2023-01-21T17:23:38.610Z,3.58
2023-01-21T17:26:15.398Z,3.58
2023-01-21T17:28:58.308Z,3.60
2023-01-21T17:31:37.168Z,3.60
2023-01-21T17:34:19.949Z,3.58
2023-01-21T17:36:51.772Z,3.51
2023-01-21T17:39:40.627Z,3.46
2023-01-21T17:42:24.272Z,3.39
2023-01-21T17:44:57.122Z,3.32
2023-01-21T17:48:06.976Z,3.30
2023-01-21T17:50:35.324Z,3.34
2023-01-21T17:53:07.472Z,3.38
2023-01-21T17:55:38.733Z,3.36
2023-01-21T17:58:49.522Z,3.30
2023-01-21T18:01:20.826Z,3.23
2023-01-21T18:03:52.219Z,3.20
2023-01-21T18:06:28.011Z,3.23
2023-01-21T18:08:57.896Z,3.26
2023-01-21T18:11:30.860Z,3.28
2023-01-21T18:14:02.585Z,3.26
2023-01-21T18:16:31.698Z,3.20
2023-01-21T18:19:00.950Z,3.15
2023-01-21T18:21:29.585Z,3.10
2023-01-21T18:23:58.961Z,3.04
2023-01-21T18:26:33.201Z,3.02
2023-01-21T18:29:02.320Z,3.02
2023-01-21T18:31:31.218Z,3.01
2023-01-21T18:34:00.894Z,2.94
2023-01-21T18:36:29.732Z,2.87
2023-01-21T18:38:58.448Z,2.81
2023-01-21T18:41:27.863Z,2.79
2023-01-21T18:43:56.472Z,2.84
2023-01-21T18:46:25.060Z,2.88
2023-01-21T18:48:53.905Z,2.90
2023-01-21T18:51:22.597Z,2.90
2023-01-21T18:53:52.170Z,2.88
2023-01-21T18:56:22.668Z,2.83
2023-01-21T18:58:52.167Z,2.79
2023-01-21T19:01:23.581Z,2.76
2023-01-21T19:03:55.778Z,2.70
2023-01-21T19:06:25.464Z,2.64
2023-01-21T19:08:55.320Z,2.55
2023-01-21T19:11:24.114Z,2.46
2023-01-21T19:13:52.816Z,2.38
2023-01-21T19:16:22.574Z,2.33
2023-01-21T19:18:51.344Z,2.28
2023-01-21T19:21:21.056Z,2.21
2023-01-21T19:23:50.494Z,2.14
2023-01-21T19:26:22.033Z,2.09
2023-01-21T19:28:54.264Z,2.08
2023-01-21T19:31:23.243Z,2.09
2023-01-21T19:33:54.190Z,2.10
2023-01-21T19:36:23.717Z,2.12
2023-01-21T19:38:59.465Z,2.14
2023-01-21T19:41:29.111Z,2.11
2023-01-21T19:43:57.801Z,2.10
2023-01-21T19:46:29.032Z,2.09
2023-01-21T19:49:03.043Z,2.05
2023-01-21T19:51:34.530Z,1.98
2023-01-21T19:54:07.225Z,1.92
2023-01-21T19:56:40.485Z,1.86
2023-01-21T19:59:16.031Z,1.82
2023-01-21T20:01:47.999Z,1.80
2023-01-21T20:04:20.035Z,1.78
2023-01-21T20:06:52.132Z,1.76
2023-01-21T20:09:20.799Z,1.76
2023-01-21T20:11:50.636Z,1.75
2023-01-21T20:14:19.750Z,1.74
2023-01-21T20:16:52.428Z,1.77
2023-01-21T20:19:22.983Z,1.84
2023-01-21T20:22:01.984Z,1.90
2023-01-21T20:24:34.335Z,1.98
2023-01-21T20:27:09.335Z,1.99
2023-01-21T20:29:49.470Z,2.00
2023-01-21T20:32:25.260Z,2.08
2023-01-21T20:34:53.926Z,2.17
2023-01-21T20:37:23.528Z,2.25
2023-01-21T20:39:59.139Z,2.28
2023-01-21T20:42:28.102Z,2.25
2023-01-21T20:44:56.768Z,2.22
2023-01-21T20:47:37.765Z,2.21
2023-01-21T20:50:28.672Z,2.22
2023-01-21T20:52:58.393Z,2.18
2023-01-21T20:55:28.250Z,2.16
2023-01-21T20:58:02.431Z,2.12
2023-01-21T21:00:36.136Z,2.04
2023-01-21T21:03:04.800Z,2.01
2023-01-21T21:05:33.465Z,2.03
2023-01-21T21:08:02.635Z,2.02
2023-01-21T21:10:38.935Z,2.02
2023-01-21T21:13:09.319Z,1.98
2023-01-21T21:15:43.622Z,1.91
2023-01-21T21:18:14.782Z,1.89
2023-01-21T21:20:44.105Z,1.86
2023-01-21T21:23:16.452Z,1.83
2023-01-21T21:25:48.408Z,1.81
2023-01-21T21:28:18.409Z,1.82
2023-01-21T21:30:47.259Z,1.89
2023-01-21T21:33:19.986Z,1.97
2023-01-21T21:35:52.115Z,2.01
2023-01-21T21:38:26.546Z,2.01
2023-01-21T21:40:55.272Z,2.05
2023-01-21T21:43:33.614Z,2.06
2023-01-21T21:46:29.066Z,2.05
2023-01-21T21:48:57.744Z,2.05
2023-01-21T21:51:26.701Z,2.12
2023-01-21T21:53:56.912Z,2.17
2023-01-21T21:56:25.587Z,2.18
2023-01-21T21:58:54.861Z,2.14
2023-01-21T22:01:25.993Z,2.09
2023-01-21T22:03:54.927Z,2.05
2023-01-21T22:06:23.599Z,2.05
2023-01-21T22:08:54.552Z,2.11
2023-01-21T22:11:23.766Z,2.15
2023-01-21T22:13:56.300Z,2.16
2023-01-21T22:16:27.760Z,2.22
2023-01-21T22:19:00.924Z,2.23
2023-01-21T22:21:34.549Z,2.23
2023-01-21T22:24:08.345Z,2.24
2023-01-21T22:26:40.533Z,2.23
2023-01-21T22:29:10.248Z,2.10
2023-01-21T22:31:47.367Z,1.99
2023-01-21T22:34:16.139Z,1.90
2023-01-21T22:36:47.325Z,1.84
2023-01-21T22:39:17.092Z,1.83
2023-01-21T22:41:46.967Z,1.79
2023-01-21T22:44:19.440Z,1.73
2023-01-21T22:46:54.913Z,1.67
2023-01-21T22:49:23.545Z,1.60
2023-01-21T22:51:57.596Z,1.57
2023-01-21T22:54:27.009Z,1.56
2023-01-21T22:57:03.149Z,1.57
2023-01-21T22:59:33.796Z,1.56
2023-01-21T23:02:05.335Z,1.52
2023-01-21T23:04:37.957Z,1.47
2023-01-21T23:07:06.600Z,1.43
2023-01-21T23:09:35.903Z,1.40
2023-01-21T23:12:05.530Z,1.39
2023-01-21T23:14:36.542Z,1.38
2023-01-21T23:17:08.010Z,1.39
2023-01-21T23:19:39.709Z,1.45
2023-01-21T23:22:10.022Z,1.46
2023-01-21T23:24:41.655Z,1.42
2023-01-21T23:27:15.010Z,1.37
2023-01-21T23:29:47.128Z,1.36
2023-01-21T23:32:18.697Z,1.35
2023-01-21T23:34:47.331Z,1.38
2023-01-21T23:37:18.676Z,1.41
2023-01-21T23:39:50.025Z,1.43
2023-01-21T23:42:23.833Z,1.39
2023-01-21T23:44:52.525Z,1.38
2023-01-21T23:47:21.203Z,1.43
2023-01-21T23:49:55.701Z,1.47
2023-01-21T23:52:29.050Z,1.49
2023-01-21T23:54:57.990Z,1.47
2023-01-21T23:57:26.540Z,1.41
2023-01-21T23:59:55.629Z,1.37
